sensor_id;sensor_type;location;lat;lon;timestamp;P1;durP1;ratioP1;P2;durP2;ratioP2
3189;SDS011;1606;51.946;10.558;2024-01-06T00:01:25;8.87;;;1.70;;
3189;SDS011;1606;51.946;10.558;2024-01-06T00:03:54;6.47;;;1.60;;
3189;SDS011;1606;51.946;10.558;2024-01-06T00:06:22;6.40;;;1.53;;
3189;SDS011;1606;51.946;10.558;2024-01-06T00:08:51;6.23;;;1.70;;
3189;SDS011;1606;51.946;10.558;2024-01-06T00:11:20;6.53;;;1.53;;
3189;SDS011;1606;51.946;10.558;2024-01-06T00:13:48;9.53;;;1.90;;
3189;SDS011;1606;51.946;10.558;2024-01-06T00:16:16;11.43;;;2.10;;
3189;SDS011;1606;51.946;10.558;2024-01-06T00:18:45;7.03;;;1.63;;
3189;SDS011;1606;51.946;10.558;2024-01-06T00:21:14;8.87;;;1.70;;
3189;SDS011;1606;51.946;10.558;2024-01-06T00:23:42;5.40;;;1.60;;
3189;SDS011;1606;51.946;10.558;2024-01-06T00:26:10;5.90;;;1.70;;
3189;SDS011;1606;51.946;10.558;2024-01-06T00:28:38;8.33;;;1.60;;
3189;SDS011;1606;51.946;10.558;2024-01-06T00:31:06;6.40;;;1.80;;
3189;SDS011;1606;51.946;10.558;2024-01-06T00:33:35;8.20;;;1.60;;
3189;SDS011;1606;51.946;10.558;2024-01-06T00:36:04;9.77;;;2.03;;
3189;SDS011;1606;51.946;10.558;2024-01-06T00:38:35;8.90;;;1.87;;
3189;SDS011;1606;51.946;10.558;2024-01-06T00:41:03;9.83;;;2.10;;
3189;SDS011;1606;51.946;10.558;2024-01-06T00:43:31;6.60;;;1.97;;
3189;SDS011;1606;51.946;10.558;2024-01-06T00:45:59;5.27;;;1.43;;
3189;SDS011;1606;51.946;10.558;2024-01-06T00:48:27;6.70;;;1.70;;
3189;SDS011;1606;51.946;10.558;2024-01-06T00:50:55;6.83;;;1.53;;
3189;SDS011;1606;51.946;10.558;2024-01-06T00:53:22;6.03;;;1.70;;
3189;SDS011;1606;51.946;10.558;2024-01-06T00:55:52;8.70;;;2.07;;
3189;SDS011;1606;51.946;10.558;2024-01-06T00:58:19;8.80;;;2.20;;
3189;SDS011;1606;51.946;10.558;2024-01-06T01:00:47;8.00;;;2.63;;
3189;SDS011;1606;51.946;10.558;2024-01-06T01:03:16;6.17;;;1.60;;
3189;SDS011;1606;51.946;10.558;2024-01-06T01:05:44;9.43;;;2.03;;
3189;SDS011;1606;51.946;10.558;2024-01-06T01:08:12;7.10;;;1.70;;
3189;SDS011;1606;51.946;10.558;2024-01-06T01:10:40;6.30;;;1.70;;
3189;SDS011;1606;51.946;10.558;2024-01-06T01:13:09;7.47;;;1.80;;
3189;SDS011;1606;51.946;10.558;2024-01-06T01:15:37;11.70;;;2.00;;
3189;SDS011;1606;51.946;10.558;2024-01-06T01:18:05;7.40;;;1.87;;
3189;SDS011;1606;51.946;10.558;2024-01-06T01:20:33;10.33;;;2.10;;
3189;SDS011;1606;51.946;10.558;2024-01-06T01:23:00;7.47;;;1.93;;
3189;SDS011;1606;51.946;10.558;2024-01-06T01:25:28;6.03;;;1.80;;
3189;SDS011;1606;51.946;10.558;2024-01-06T01:27:56;6.57;;;1.80;;
3189;SDS011;1606;51.946;10.558;2024-01-06T01:30:25;6.40;;;1.80;;
3189;SDS011;1606;51.946;10.558;2024-01-06T01:32:54;6.80;;;1.80;;
3189;SDS011;1606;51.946;10.558;2024-01-06T01:35:22;7.33;;;1.93;;
3189;SDS011;1606;51.946;10.558;2024-01-06T01:37:50;6.80;;;1.80;;
3189;SDS011;1606;51.946;10.558;2024-01-06T01:40:18;6.40;;;1.60;;
3189;SDS011;1606;51.946;10.558;2024-01-06T01:42:46;16.73;;;2.90;;
3189;SDS011;1606;51.946;10.558;2024-01-06T01:45:14;7.77;;;1.50;;
3189;SDS011;1606;51.946;10.558;2024-01-06T01:47:43;8.73;;;2.90;;
3189;SDS011;1606;51.946;10.558;2024-01-06T01:50:12;6.60;;;1.70;;
3189;SDS011;1606;51.946;10.558;2024-01-06T01:52:41;9.33;;;2.10;;
3189;SDS011;1606;51.946;10.558;2024-01-06T01:55:09;7.90;;;2.10;;
3189;SDS011;1606;51.946;10.558;2024-01-06T01:57:37;6.73;;;1.87;;
3189;SDS011;1606;51.946;10.558;2024-01-06T02:00:06;6.80;;;1.87;;
3189;SDS011;1606;51.946;10.558;2024-01-06T02:02:35;6.53;;;2.00;;
3189;SDS011;1606;51.946;10.558;2024-01-06T02:05:05;5.80;;;1.80;;
3189;SDS011;1606;51.946;10.558;2024-01-06T02:07:33;9.80;;;2.17;;
3189;SDS011;1606;51.946;10.558;2024-01-06T02:10:01;6.80;;;1.80;;
3189;SDS011;1606;51.946;10.558;2024-01-06T02:12:29;9.63;;;2.00;;
3189;SDS011;1606;51.946;10.558;2024-01-06T02:14:57;8.13;;;1.83;;
3189;SDS011;1606;51.946;10.558;2024-01-06T02:17:25;7.87;;;2.30;;
3189;SDS011;1606;51.946;10.558;2024-01-06T02:19:52;6.80;;;1.87;;
3189;SDS011;1606;51.946;10.558;2024-01-06T02:22:22;8.00;;;2.00;;
3189;SDS011;1606;51.946;10.558;2024-01-06T02:24:50;9.20;;;1.83;;
3189;SDS011;1606;51.946;10.558;2024-01-06T02:27:18;7.50;;;1.90;;
3189;SDS011;1606;51.946;10.558;2024-01-06T02:29:45;8.77;;;1.87;;
3189;SDS011;1606;51.946;10.558;2024-01-06T02:32:13;7.00;;;2.50;;
3189;SDS011;1606;51.946;10.558;2024-01-06T02:34:41;7.17;;;1.83;;
3189;SDS011;1606;51.946;10.558;2024-01-06T02:37:10;9.83;;;1.73;;
3189;SDS011;1606;51.946;10.558;2024-01-06T02:39:40;10.40;;;2.03;;
3189;SDS011;1606;51.946;10.558;2024-01-06T02:42:08;8.83;;;2.40;;
3189;SDS011;1606;51.946;10.558;2024-01-06T02:44:36;9.00;;;2.67;;
3189;SDS011;1606;51.946;10.558;2024-01-06T02:47:04;8.30;;;2.97;;
3189;SDS011;1606;51.946;10.558;2024-01-06T02:49:32;12.73;;;5.33;;
3189;SDS011;1606;51.946;10.558;2024-01-06T02:52:00;13.90;;;8.00;;
3189;SDS011;1606;51.946;10.558;2024-01-06T02:54:28;13.20;;;5.40;;
3189;SDS011;1606;51.946;10.558;2024-01-06T02:56:57;12.50;;;5.00;;
3189;SDS011;1606;51.946;10.558;2024-01-06T02:59:25;9.40;;;3.60;;
3189;SDS011;1606;51.946;10.558;2024-01-06T03:01:53;9.53;;;2.40;;
3189;SDS011;1606;51.946;10.558;2024-01-06T03:04:20;7.33;;;2.13;;
3189;SDS011;1606;51.946;10.558;2024-01-06T03:06:48;8.00;;;2.40;;
3189;SDS011;1606;51.946;10.558;2024-01-06T03:09:19;11.87;;;2.33;;
3189;SDS011;1606;51.946;10.558;2024-01-06T03:11:47;5.90;;;2.03;;
3189;SDS011;1606;51.946;10.558;2024-01-06T03:14:17;7.27;;;2.30;;
3189;SDS011;1606;51.946;10.558;2024-01-06T03:16:44;7.00;;;1.87;;
3189;SDS011;1606;51.946;10.558;2024-01-06T03:19:12;9.63;;;2.17;;
3189;SDS011;1606;51.946;10.558;2024-01-06T03:21:40;6.87;;;2.00;;
3189;SDS011;1606;51.946;10.558;2024-01-06T03:24:08;11.33;;;2.17;;
3189;SDS011;1606;51.946;10.558;2024-01-06T03:26:36;12.50;;;4.50;;
3189;SDS011;1606;51.946;10.558;2024-01-06T03:29:04;6.53;;;1.80;;
3189;SDS011;1606;51.946;10.558;2024-01-06T03:31:33;8.80;;;2.37;;
3189;SDS011;1606;51.946;10.558;2024-01-06T03:34:02;8.37;;;2.50;;
3189;SDS011;1606;51.946;10.558;2024-01-06T03:36:30;7.73;;;2.10;;
3189;SDS011;1606;51.946;10.558;2024-01-06T03:38:57;12.27;;;3.93;;
3189;SDS011;1606;51.946;10.558;2024-01-06T03:41:25;8.20;;;2.10;;
3189;SDS011;1606;51.946;10.558;2024-01-06T03:43:54;7.47;;;2.13;;
3189;SDS011;1606;51.946;10.558;2024-01-06T03:46:22;7.93;;;2.07;;
3189;SDS011;1606;51.946;10.558;2024-01-06T03:48:52;7.93;;;2.17;;
3189;SDS011;1606;51.946;10.558;2024-01-06T03:51:20;8.23;;;2.57;;
3189;SDS011;1606;51.946;10.558;2024-01-06T03:53:48;9.10;;;2.00;;
3189;SDS011;1606;51.946;10.558;2024-01-06T03:56:16;9.37;;;2.00;;
3189;SDS011;1606;51.946;10.558;2024-01-06T03:58:44;8.73;;;2.37;;
3189;SDS011;1606;51.946;10.558;2024-01-06T04:01:12;11.13;;;2.90;;
3189;SDS011;1606;51.946;10.558;2024-01-06T04:03:40;7.27;;;2.30;;
3189;SDS011;1606;51.946;10.558;2024-01-06T04:06:10;10.60;;;2.50;;
3189;SDS011;1606;51.946;10.558;2024-01-06T04:08:39;12.00;;;4.90;;
3189;SDS011;1606;51.946;10.558;2024-01-06T04:11:07;5.70;;;2.10;;
3189;SDS011;1606;51.946;10.558;2024-01-06T04:13:35;9.30;;;2.27;;
3189;SDS011;1606;51.946;10.558;2024-01-06T04:16:03;6.87;;;2.10;;
3189;SDS011;1606;51.946;10.558;2024-01-06T04:18:31;7.97;;;2.20;;
3189;SDS011;1606;51.946;10.558;2024-01-06T04:20:59;6.60;;;1.97;;
3189;SDS011;1606;51.946;10.558;2024-01-06T04:23:29;9.10;;;2.40;;
3189;SDS011;1606;51.946;10.558;2024-01-06T04:25:56;7.53;;;2.03;;
3189;SDS011;1606;51.946;10.558;2024-01-06T04:28:24;14.00;;;2.70;;
3189;SDS011;1606;51.946;10.558;2024-01-06T04:30:52;7.57;;;2.63;;
3189;SDS011;1606;51.946;10.558;2024-01-06T04:33:20;8.70;;;2.57;;
3189;SDS011;1606;51.946;10.558;2024-01-06T04:35:48;11.17;;;2.57;;
3189;SDS011;1606;51.946;10.558;2024-01-06T04:38:17;8.57;;;2.77;;
3189;SDS011;1606;51.946;10.558;2024-01-06T04:40:46;7.70;;;2.20;;
3189;SDS011;1606;51.946;10.558;2024-01-06T04:43:14;12.13;;;2.53;;
3189;SDS011;1606;51.946;10.558;2024-01-06T04:45:42;8.33;;;2.40;;
3189;SDS011;1606;51.946;10.558;2024-01-06T04:48:10;9.10;;;2.77;;
3189;SDS011;1606;51.946;10.558;2024-01-06T04:50:39;10.03;;;2.50;;
3189;SDS011;1606;51.946;10.558;2024-01-06T04:53:07;8.70;;;3.10;;
3189;SDS011;1606;51.946;10.558;2024-01-06T04:55:35;10.00;;;2.83;;
3189;SDS011;1606;51.946;10.558;2024-01-06T04:58:04;8.80;;;2.80;;
3189;SDS011;1606;51.946;10.558;2024-01-06T05:00:32;8.50;;;2.80;;
3189;SDS011;1606;51.946;10.558;2024-01-06T05:03:02;10.10;;;2.90;;
3189;SDS011;1606;51.946;10.558;2024-01-06T05:05:31;7.63;;;2.40;;
3189;SDS011;1606;51.946;10.558;2024-01-06T05:07:59;9.87;;;2.30;;
3189;SDS011;1606;51.946;10.558;2024-01-06T05:10:27;6.90;;;2.40;;
3189;SDS011;1606;51.946;10.558;2024-01-06T05:12:55;8.20;;;2.07;;
3189;SDS011;1606;51.946;10.558;2024-01-06T05:15:24;8.30;;;2.20;;
3189;SDS011;1606;51.946;10.558;2024-01-06T05:17:52;7.77;;;2.20;;
3189;SDS011;1606;51.946;10.558;2024-01-06T05:20:21;7.73;;;2.30;;
3189;SDS011;1606;51.946;10.558;2024-01-06T05:22:49;6.70;;;2.17;;
3189;SDS011;1606;51.946;10.558;2024-01-06T05:25:17;9.17;;;2.10;;
3189;SDS011;1606;51.946;10.558;2024-01-06T05:27:45;9.63;;;2.43;;
3189;SDS011;1606;51.946;10.558;2024-01-06T05:30:13;6.87;;;2.07;;
3189;SDS011;1606;51.946;10.558;2024-01-06T05:32:42;6.73;;;2.10;;
3189;SDS011;1606;51.946;10.558;2024-01-06T05:35:10;10.23;;;2.80;;
3189;SDS011;1606;51.946;10.558;2024-01-06T05:37:38;7.33;;;2.53;;
3189;SDS011;1606;51.946;10.558;2024-01-06T05:40:07;10.33;;;3.10;;
3189;SDS011;1606;51.946;10.558;2024-01-06T05:42:35;7.43;;;2.03;;
3189;SDS011;1606;51.946;10.558;2024-01-06T05:45:03;8.70;;;2.20;;
3189;SDS011;1606;51.946;10.558;2024-01-06T05:47:32;6.37;;;2.20;;
3189;SDS011;1606;51.946;10.558;2024-01-06T05:50:01;7.70;;;2.20;;
3189;SDS011;1606;51.946;10.558;2024-01-06T05:52:29;7.93;;;2.37;;
3189;SDS011;1606;51.946;10.558;2024-01-06T05:54:57;8.30;;;2.60;;
3189;SDS011;1606;51.946;10.558;2024-01-06T05:57:25;10.70;;;2.77;;
3189;SDS011;1606;51.946;10.558;2024-01-06T05:59:53;11.57;;;2.80;;
3189;SDS011;1606;51.946;10.558;2024-01-06T06:02:21;6.87;;;2.60;;
3189;SDS011;1606;51.946;10.558;2024-01-06T06:04:49;8.93;;;2.60;;
3189;SDS011;1606;51.946;10.558;2024-01-06T06:07:18;7.10;;;2.27;;
3189;SDS011;1606;51.946;10.558;2024-01-06T06:09:47;8.47;;;2.37;;
3189;SDS011;1606;51.946;10.558;2024-01-06T06:12:15;9.53;;;2.27;;
3189;SDS011;1606;51.946;10.558;2024-01-06T06:14:43;11.37;;;2.93;;
3189;SDS011;1606;51.946;10.558;2024-01-06T06:17:10;8.37;;;2.43;;
3189;SDS011;1606;51.946;10.558;2024-01-06T06:19:38;6.73;;;2.13;;
3189;SDS011;1606;51.946;10.558;2024-01-06T06:22:07;8.80;;;2.37;;
3189;SDS011;1606;51.946;10.558;2024-01-06T06:24:36;7.57;;;2.10;;
3189;SDS011;1606;51.946;10.558;2024-01-06T06:27:04;8.80;;;2.17;;
3189;SDS011;1606;51.946;10.558;2024-01-06T06:29:32;7.93;;;2.00;;
3189;SDS011;1606;51.946;10.558;2024-01-06T06:32:00;6.73;;;2.27;;
3189;SDS011;1606;51.946;10.558;2024-01-06T06:34:28;10.53;;;4.40;;
3189;SDS011;1606;51.946;10.558;2024-01-06T06:36:56;11.47;;;5.67;;
3189;SDS011;1606;51.946;10.558;2024-01-06T06:39:25;11.80;;;7.10;;
3189;SDS011;1606;51.946;10.558;2024-01-06T06:41:54;17.03;;;10.03;;
3189;SDS011;1606;51.946;10.558;2024-01-06T06:44:22;22.77;;;10.33;;
3189;SDS011;1606;51.946;10.558;2024-01-06T06:46:50;18.27;;;10.30;;
3189;SDS011;1606;51.946;10.558;2024-01-06T06:49:18;18.13;;;10.20;;
3189;SDS011;1606;51.946;10.558;2024-01-06T06:51:46;17.17;;;10.30;;
3189;SDS011;1606;51.946;10.558;2024-01-06T06:54:15;18.67;;;11.00;;
3189;SDS011;1606;51.946;10.558;2024-01-06T06:56:43;17.10;;;10.60;;
3189;SDS011;1606;51.946;10.558;2024-01-06T06:59:13;19.97;;;10.73;;
3189;SDS011;1606;51.946;10.558;2024-01-06T07:01:40;18.27;;;10.50;;
3189;SDS011;1606;51.946;10.558;2024-01-06T07:04:08;24.80;;;10.70;;
3189;SDS011;1606;51.946;10.558;2024-01-06T07:06:36;17.47;;;11.57;;
3189;SDS011;1606;51.946;10.558;2024-01-06T07:09:04;17.73;;;10.40;;
3189;SDS011;1606;51.946;10.558;2024-01-06T07:11:32;24.63;;;12.00;;
3189;SDS011;1606;51.946;10.558;2024-01-06T07:14:00;20.93;;;12.47;;
3189;SDS011;1606;51.946;10.558;2024-01-06T07:16:29;23.50;;;12.80;;
3189;SDS011;1606;51.946;10.558;2024-01-06T07:18:57;21.53;;;12.40;;
3189;SDS011;1606;51.946;10.558;2024-01-06T07:21:25;19.17;;;12.10;;
3189;SDS011;1606;51.946;10.558;2024-01-06T07:23:53;19.37;;;11.20;;
3189;SDS011;1606;51.946;10.558;2024-01-06T07:26:21;21.47;;;13.80;;
3189;SDS011;1606;51.946;10.558;2024-01-06T07:28:49;20.23;;;13.50;;
3189;SDS011;1606;51.946;10.558;2024-01-06T07:31:17;24.10;;;14.80;;
3189;SDS011;1606;51.946;10.558;2024-01-06T07:33:46;21.63;;;12.43;;
3189;SDS011;1606;51.946;10.558;2024-01-06T07:36:14;21.43;;;13.20;;
3189;SDS011;1606;51.946;10.558;2024-01-06T07:38:43;24.07;;;15.87;;
3189;SDS011;1606;51.946;10.558;2024-01-06T07:41:12;24.23;;;14.20;;
3189;SDS011;1606;51.946;10.558;2024-01-06T07:43:40;24.10;;;14.70;;
3189;SDS011;1606;51.946;10.558;2024-01-06T07:46:08;26.30;;;15.57;;
3189;SDS011;1606;51.946;10.558;2024-01-06T07:48:36;23.73;;;14.87;;
3189;SDS011;1606;51.946;10.558;2024-01-06T07:51:06;25.13;;;16.37;;
3189;SDS011;1606;51.946;10.558;2024-01-06T07:53:34;26.10;;;15.80;;
3189;SDS011;1606;51.946;10.558;2024-01-06T07:56:01;25.47;;;15.53;;
3189;SDS011;1606;51.946;10.558;2024-01-06T07:58:29;24.80;;;16.40;;
3189;SDS011;1606;51.946;10.558;2024-01-06T08:00:59;26.63;;;15.80;;
3189;SDS011;1606;51.946;10.558;2024-01-06T08:03:28;28.70;;;16.70;;
3189;SDS011;1606;51.946;10.558;2024-01-06T08:05:56;26.20;;;15.77;;
3189;SDS011;1606;51.946;10.558;2024-01-06T08:08:25;26.33;;;15.20;;
3189;SDS011;1606;51.946;10.558;2024-01-06T08:10:53;20.90;;;14.53;;
3189;SDS011;1606;51.946;10.558;2024-01-06T08:13:21;20.53;;;14.07;;
3189;SDS011;1606;51.946;10.558;2024-01-06T08:15:49;22.37;;;13.90;;
3189;SDS011;1606;51.946;10.558;2024-01-06T08:18:17;21.57;;;13.10;;
3189;SDS011;1606;51.946;10.558;2024-01-06T08:20:47;22.90;;;13.60;;
3189;SDS011;1606;51.946;10.558;2024-01-06T08:23:15;24.63;;;14.80;;
3189;SDS011;1606;51.946;10.558;2024-01-06T08:25:46;21.40;;;13.20;;
3189;SDS011;1606;51.946;10.558;2024-01-06T08:28:14;20.90;;;13.60;;
3189;SDS011;1606;51.946;10.558;2024-01-06T08:30:42;23.23;;;14.27;;
3189;SDS011;1606;51.946;10.558;2024-01-06T08:33:10;25.70;;;14.93;;
3189;SDS011;1606;51.946;10.558;2024-01-06T08:35:38;24.60;;;14.43;;
3189;SDS011;1606;51.946;10.558;2024-01-06T08:38:06;27.33;;;14.97;;
3189;SDS011;1606;51.946;10.558;2024-01-06T08:40:35;22.40;;;13.40;;
3189;SDS011;1606;51.946;10.558;2024-01-06T08:43:04;24.37;;;15.33;;
3189;SDS011;1606;51.946;10.558;2024-01-06T08:45:32;23.37;;;13.37;;
3189;SDS011;1606;51.946;10.558;2024-01-06T08:48:00;23.73;;;14.90;;
3189;SDS011;1606;51.946;10.558;2024-01-06T08:50:28;24.27;;;15.13;;
3189;SDS011;1606;51.946;10.558;2024-01-06T08:52:56;21.40;;;12.57;;
3189;SDS011;1606;51.946;10.558;2024-01-06T08:55:24;27.30;;;14.07;;
3189;SDS011;1606;51.946;10.558;2024-01-06T08:57:52;25.13;;;14.53;;
3189;SDS011;1606;51.946;10.558;2024-01-06T09:00:21;21.20;;;13.73;;
3189;SDS011;1606;51.946;10.558;2024-01-06T09:02:49;25.13;;;14.13;;
3189;SDS011;1606;51.946;10.558;2024-01-06T09:05:17;23.00;;;13.77;;
3189;SDS011;1606;51.946;10.558;2024-01-06T09:07:45;26.07;;;15.40;;
3189;SDS011;1606;51.946;10.558;2024-01-06T09:10:20;23.00;;;13.60;;
3189;SDS011;1606;51.946;10.558;2024-01-06T09:12:48;24.77;;;14.70;;
3189;SDS011;1606;51.946;10.558;2024-01-06T09:15:16;22.30;;;14.50;;
3189;SDS011;1606;51.946;10.558;2024-01-06T09:17:44;26.57;;;15.13;;
3189;SDS011;1606;51.946;10.558;2024-01-06T09:20:12;28.40;;;17.00;;
3189;SDS011;1606;51.946;10.558;2024-01-06T09:22:40;29.97;;;17.30;;
3189;SDS011;1606;51.946;10.558;2024-01-06T09:25:08;30.17;;;17.03;;
3189;SDS011;1606;51.946;10.558;2024-01-06T09:27:36;28.23;;;14.93;;
3189;SDS011;1606;51.946;10.558;2024-01-06T09:30:04;26.40;;;16.00;;
3189;SDS011;1606;51.946;10.558;2024-01-06T09:32:34;26.93;;;15.83;;
3189;SDS011;1606;51.946;10.558;2024-01-06T09:35:04;27.03;;;14.90;;
3189;SDS011;1606;51.946;10.558;2024-01-06T09:37:32;27.87;;;15.53;;
3189;SDS011;1606;51.946;10.558;2024-01-06T09:40:00;26.40;;;16.93;;
3189;SDS011;1606;51.946;10.558;2024-01-06T09:42:28;28.60;;;16.23;;
3189;SDS011;1606;51.946;10.558;2024-01-06T09:44:56;25.27;;;16.23;;
3189;SDS011;1606;51.946;10.558;2024-01-06T09:47:24;27.77;;;16.40;;
3189;SDS011;1606;51.946;10.558;2024-01-06T09:49:55;27.27;;;15.80;;
3189;SDS011;1606;51.946;10.558;2024-01-06T09:52:29;41.43;;;24.33;;
3189;SDS011;1606;51.946;10.558;2024-01-06T09:55:00;28.57;;;17.13;;
3189;SDS011;1606;51.946;10.558;2024-01-06T09:57:32;30.73;;;18.73;;
3189;SDS011;1606;51.946;10.558;2024-01-06T10:00:00;28.53;;;16.13;;
3189;SDS011;1606;51.946;10.558;2024-01-06T10:02:28;29.63;;;17.10;;
3189;SDS011;1606;51.946;10.558;2024-01-06T10:04:58;25.90;;;15.33;;
3189;SDS011;1606;51.946;10.558;2024-01-06T10:07:26;25.20;;;15.47;;
3189;SDS011;1606;51.946;10.558;2024-01-06T10:09:55;31.70;;;16.57;;
3189;SDS011;1606;51.946;10.558;2024-01-06T10:12:23;28.13;;;15.87;;
3189;SDS011;1606;51.946;10.558;2024-01-06T10:14:53;28.20;;;17.43;;
3189;SDS011;1606;51.946;10.558;2024-01-06T10:17:21;34.67;;;16.30;;
3189;SDS011;1606;51.946;10.558;2024-01-06T10:19:49;32.23;;;18.33;;
3189;SDS011;1606;51.946;10.558;2024-01-06T10:22:19;26.30;;;16.87;;
3189;SDS011;1606;51.946;10.558;2024-01-06T10:24:47;29.37;;;16.93;;
3189;SDS011;1606;51.946;10.558;2024-01-06T10:27:16;28.93;;;16.23;;
3189;SDS011;1606;51.946;10.558;2024-01-06T10:29:44;28.00;;;17.47;;
3189;SDS011;1606;51.946;10.558;2024-01-06T10:32:12;30.70;;;18.33;;
3189;SDS011;1606;51.946;10.558;2024-01-06T10:34:40;32.57;;;18.33;;
3189;SDS011;1606;51.946;10.558;2024-01-06T10:37:09;31.47;;;17.60;;
3189;SDS011;1606;51.946;10.558;2024-01-06T10:39:38;30.00;;;17.37;;
3189;SDS011;1606;51.946;10.558;2024-01-06T10:42:06;33.33;;;18.70;;
3189;SDS011;1606;51.946;10.558;2024-01-06T10:44:36;34.27;;;19.63;;
3189;SDS011;1606;51.946;10.558;2024-01-06T10:47:10;30.10;;;18.03;;
3189;SDS011;1606;51.946;10.558;2024-01-06T10:49:39;29.03;;;17.33;;
3189;SDS011;1606;51.946;10.558;2024-01-06T10:52:07;29.80;;;18.42;;
3189;SDS011;1606;51.946;10.558;2024-01-06T10:54:36;28.40;;;18.23;;
3189;SDS011;1606;51.946;10.558;2024-01-06T10:57:07;27.77;;;16.97;;
3189;SDS011;1606;51.946;10.558;2024-01-06T10:59:37;32.27;;;18.43;;
3189;SDS011;1606;51.946;10.558;2024-01-06T11:02:06;25.30;;;14.73;;
3189;SDS011;1606;51.946;10.558;2024-01-06T11:04:35;26.67;;;16.77;;
3189;SDS011;1606;51.946;10.558;2024-01-06T11:07:04;26.80;;;16.60;;
3189;SDS011;1606;51.946;10.558;2024-01-06T11:09:33;26.93;;;16.20;;
3189;SDS011;1606;51.946;10.558;2024-01-06T11:12:05;27.23;;;15.80;;
3189;SDS011;1606;51.946;10.558;2024-01-06T11:14:37;31.33;;;17.90;;
3189;SDS011;1606;51.946;10.558;2024-01-06T11:17:05;27.77;;;16.80;;
3189;SDS011;1606;51.946;10.558;2024-01-06T11:19:43;25.53;;;16.27;;
3189;SDS011;1606;51.946;10.558;2024-01-06T11:22:20;28.47;;;16.73;;
3189;SDS011;1606;51.946;10.558;2024-01-06T11:24:50;27.30;;;17.20;;
3189;SDS011;1606;51.946;10.558;2024-01-06T11:27:19;29.40;;;15.97;;
3189;SDS011;1606;51.946;10.558;2024-01-06T11:29:52;27.60;;;15.80;;
3189;SDS011;1606;51.946;10.558;2024-01-06T11:32:24;36.50;;;18.87;;
3189;SDS011;1606;51.946;10.558;2024-01-06T11:34:54;31.20;;;18.50;;
3189;SDS011;1606;51.946;10.558;2024-01-06T11:37:34;29.90;;;19.07;;
3189;SDS011;1606;51.946;10.558;2024-01-06T11:40:07;30.90;;;18.03;;
3189;SDS011;1606;51.946;10.558;2024-01-06T11:42:36;30.03;;;18.37;;
3189;SDS011;1606;51.946;10.558;2024-01-06T11:45:06;32.97;;;20.93;;
3189;SDS011;1606;51.946;10.558;2024-01-06T11:47:35;35.90;;;20.70;;
3189;SDS011;1606;51.946;10.558;2024-01-06T11:50:03;34.73;;;19.17;;
3189;SDS011;1606;51.946;10.558;2024-01-06T11:52:32;33.10;;;19.23;;
3189;SDS011;1606;51.946;10.558;2024-01-06T11:55:00;32.50;;;18.63;;
3189;SDS011;1606;51.946;10.558;2024-01-06T11:57:29;28.00;;;18.17;;
3189;SDS011;1606;51.946;10.558;2024-01-06T11:59:57;28.57;;;18.37;;
3189;SDS011;1606;51.946;10.558;2024-01-06T12:02:26;29.43;;;18.00;;
3189;SDS011;1606;51.946;10.558;2024-01-06T12:04:54;31.67;;;19.03;;
3189;SDS011;1606;51.946;10.558;2024-01-06T12:07:22;31.57;;;17.47;;
3189;SDS011;1606;51.946;10.558;2024-01-06T12:09:50;29.17;;;17.50;;
3189;SDS011;1606;51.946;10.558;2024-01-06T12:12:27;26.73;;;15.73;;
3189;SDS011;1606;51.946;10.558;2024-01-06T12:14:55;25.97;;;15.10;;
3189;SDS011;1606;51.946;10.558;2024-01-06T12:17:23;25.37;;;15.63;;
3189;SDS011;1606;51.946;10.558;2024-01-06T12:19:57;28.87;;;17.53;;
3189;SDS011;1606;51.946;10.558;2024-01-06T12:22:26;29.00;;;17.87;;
3189;SDS011;1606;51.946;10.558;2024-01-06T12:24:54;23.93;;;14.70;;
3189;SDS011;1606;51.946;10.558;2024-01-06T12:27:24;22.43;;;15.17;;
3189;SDS011;1606;51.946;10.558;2024-01-06T12:29:52;24.33;;;14.53;;
3189;SDS011;1606;51.946;10.558;2024-01-06T12:32:20;30.10;;;17.57;;
3189;SDS011;1606;51.946;10.558;2024-01-06T12:34:49;32.20;;;18.67;;
3189;SDS011;1606;51.946;10.558;2024-01-06T12:37:17;41.00;;;23.13;;
3189;SDS011;1606;51.946;10.558;2024-01-06T12:39:46;39.97;;;21.30;;
3189;SDS011;1606;51.946;10.558;2024-01-06T12:42:15;39.23;;;22.13;;
3189;SDS011;1606;51.946;10.558;2024-01-06T12:44:44;40.27;;;24.53;;
3189;SDS011;1606;51.946;10.558;2024-01-06T12:47:12;41.77;;;22.13;;
3189;SDS011;1606;51.946;10.558;2024-01-06T12:49:40;42.97;;;23.27;;
3189;SDS011;1606;51.946;10.558;2024-01-06T12:52:09;40.90;;;22.77;;
3189;SDS011;1606;51.946;10.558;2024-01-06T12:54:38;48.83;;;23.13;;
3189;SDS011;1606;51.946;10.558;2024-01-06T12:57:09;47.30;;;24.53;;
3189;SDS011;1606;51.946;10.558;2024-01-06T12:59:38;43.80;;;23.30;;
3189;SDS011;1606;51.946;10.558;2024-01-06T13:02:06;39.67;;;22.63;;
3189;SDS011;1606;51.946;10.558;2024-01-06T13:04:34;44.00;;;22.73;;
3189;SDS011;1606;51.946;10.558;2024-01-06T13:07:02;44.63;;;25.90;;
3189;SDS011;1606;51.946;10.558;2024-01-06T13:09:31;41.57;;;22.33;;
3189;SDS011;1606;51.946;10.558;2024-01-06T13:11:59;44.87;;;23.10;;
3189;SDS011;1606;51.946;10.558;2024-01-06T13:14:28;39.60;;;22.13;;
3189;SDS011;1606;51.946;10.558;2024-01-06T13:16:56;37.57;;;21.70;;
3189;SDS011;1606;51.946;10.558;2024-01-06T13:19:25;43.63;;;22.63;;
3189;SDS011;1606;51.946;10.558;2024-01-06T13:21:53;41.53;;;20.30;;
3189;SDS011;1606;51.946;10.558;2024-01-06T13:24:21;43.90;;;23.77;;
3189;SDS011;1606;51.946;10.558;2024-01-06T13:26:51;40.90;;;22.03;;
3189;SDS011;1606;51.946;10.558;2024-01-06T13:29:19;41.30;;;22.40;;
3189;SDS011;1606;51.946;10.558;2024-01-06T13:31:47;44.40;;;23.97;;
3189;SDS011;1606;51.946;10.558;2024-01-06T13:34:15;47.43;;;21.07;;
3189;SDS011;1606;51.946;10.558;2024-01-06T13:36:44;43.00;;;22.20;;
3189;SDS011;1606;51.946;10.558;2024-01-06T13:39:13;57.37;;;23.47;;
3189;SDS011;1606;51.946;10.558;2024-01-06T13:41:47;45.50;;;22.43;;
3189;SDS011;1606;51.946;10.558;2024-01-06T13:44:17;47.27;;;23.97;;
3189;SDS011;1606;51.946;10.558;2024-01-06T13:46:45;44.50;;;21.30;;
3189;SDS011;1606;51.946;10.558;2024-01-06T13:49:14;43.63;;;22.37;;
3189;SDS011;1606;51.946;10.558;2024-01-06T13:51:42;40.43;;;22.57;;
3189;SDS011;1606;51.946;10.558;2024-01-06T13:54:11;46.33;;;23.67;;
3189;SDS011;1606;51.946;10.558;2024-01-06T13:56:41;50.57;;;23.50;;
3189;SDS011;1606;51.946;10.558;2024-01-06T13:59:09;39.17;;;22.20;;
3189;SDS011;1606;51.946;10.558;2024-01-06T14:01:39;61.63;;;23.73;;
3189;SDS011;1606;51.946;10.558;2024-01-06T14:04:07;42.63;;;24.40;;
3189;SDS011;1606;51.946;10.558;2024-01-06T14:06:35;51.10;;;25.93;;
3189;SDS011;1606;51.946;10.558;2024-01-06T14:09:04;53.67;;;24.70;;
3189;SDS011;1606;51.946;10.558;2024-01-06T14:11:32;76.67;;;25.00;;
3189;SDS011;1606;51.946;10.558;2024-01-06T14:14:00;41.43;;;21.17;;
3189;SDS011;1606;51.946;10.558;2024-01-06T14:16:28;43.40;;;24.17;;
3189;SDS011;1606;51.946;10.558;2024-01-06T14:18:58;45.80;;;21.57;;
3189;SDS011;1606;51.946;10.558;2024-01-06T14:21:26;38.00;;;19.83;;
3189;SDS011;1606;51.946;10.558;2024-01-06T14:23:54;46.23;;;25.30;;
3189;SDS011;1606;51.946;10.558;2024-01-06T14:26:23;50.40;;;22.33;;
3189;SDS011;1606;51.946;10.558;2024-01-06T14:28:50;54.90;;;24.27;;
3189;SDS011;1606;51.946;10.558;2024-01-06T14:31:18;44.27;;;23.30;;
3189;SDS011;1606;51.946;10.558;2024-01-06T14:33:47;49.03;;;24.87;;
3189;SDS011;1606;51.946;10.558;2024-01-06T14:36:16;54.23;;;23.53;;
3189;SDS011;1606;51.946;10.558;2024-01-06T14:38:44;58.93;;;25.30;;
3189;SDS011;1606;51.946;10.558;2024-01-06T14:41:12;52.27;;;23.90;;
3189;SDS011;1606;51.946;10.558;2024-01-06T14:43:40;51.33;;;23.17;;
3189;SDS011;1606;51.946;10.558;2024-01-06T14:46:08;51.27;;;26.00;;
3189;SDS011;1606;51.946;10.558;2024-01-06T14:48:36;53.97;;;28.30;;
3189;SDS011;1606;51.946;10.558;2024-01-06T14:51:04;47.17;;;25.10;;
3189;SDS011;1606;51.946;10.558;2024-01-06T14:53:34;51.53;;;25.60;;